createdAt,value
2019-01-06T00:01:48.129Z,77.02
2019-01-06T00:04:35.487Z,76.57
2019-01-06T00:07:23.597Z,76.51
2019-01-06T00:10:06.088Z,76.53
2019-01-06T00:12:56.988Z,76.09
2019-01-06T00:15:35.725Z,75.83
2019-01-06T00:18:38.622Z,76.03
2019-01-06T00:21:42.746Z,76.21
2019-01-06T00:24:29.324Z,75.70
2019-01-06T00:27:24.831Z,75.80
2019-01-06T00:30:16.561Z,75.91
2019-01-06T00:33:02.959Z,75.57
2019-01-06T00:36:01.031Z,75.85
2019-01-06T00:38:53.478Z,76.05
2019-01-06T00:41:40.576Z,75.60
2019-01-06T00:44:38.585Z,75.46
2019-01-06T00:47:28.152Z,75.02
2019-01-06T00:50:34.640Z,75.44
2019-01-06T00:53:34.154Z,75.31
2019-01-06T00:56:20.241Z,75.40
2019-01-06T00:59:10.866Z,75.68
2019-01-06T01:01:57.216Z,75.78
2019-01-06T01:04:45.115Z,76.01
2019-01-06T01:07:31.941Z,75.77
2019-01-06T01:13:52.636Z,75.57
2019-01-06T01:16:41.927Z,75.12
2019-01-06T01:19:38.859Z,75.34
2019-01-06T01:22:38.768Z,75.24
2019-01-06T01:25:25.303Z,75.39
2019-01-06T01:28:17.670Z,74.33
2019-01-06T01:31:13.717Z,74.36
2019-01-06T01:34:01.327Z,74.55
2019-01-06T01:36:45.923Z,74.30
2019-01-06T01:39:36.823Z,74.20
2019-01-06T01:42:27.603Z,74.23
2019-01-06T01:45:15.521Z,74.51
2019-01-06T01:48:01.612Z,74.32
2019-01-06T01:50:41.837Z,74.36
2019-01-06T01:53:23.640Z,74.29
2019-01-06T01:56:17.575Z,74.21
2019-01-06T01:59:05.464Z,74.15
2019-01-06T02:02:06.202Z,74.03
2019-01-06T02:04:56.964Z,73.89
2019-01-06T02:08:02.820Z,73.79
2019-01-06T02:10:46.700Z,73.58
2019-01-06T02:13:52.564Z,74.01
2019-01-06T02:16:59.717Z,74.17
2019-01-06T02:19:46.230Z,74.37
2019-01-06T02:22:32.564Z,74.42
2019-01-06T02:25:18.914Z,74.53
2019-01-06T02:28:05.406Z,74.57
2019-01-06T02:30:52.581Z,74.64
2019-01-06T02:33:41.035Z,74.72
2019-01-06T02:36:31.918Z,74.78
2019-01-06T02:39:24.712Z,74.71
2019-01-06T02:42:09.988Z,74.69
2019-01-06T02:45:06.697Z,74.72
2019-01-06T02:48:03.955Z,74.84
2019-01-06T02:50:50.587Z,74.98
2019-01-06T02:53:37.432Z,75.03
2019-01-06T02:56:25.974Z,75.03
2019-01-06T02:59:12.696Z,75.10
2019-01-06T03:02:14.325Z,75.02
2019-01-06T03:05:10.904Z,75.19
2019-01-06T03:07:57.289Z,75.27
2019-01-06T03:10:49.961Z,75.35
2019-01-06T03:13:33.294Z,75.43
2019-01-06T03:16:21.267Z,75.35
2019-01-06T03:19:24.117Z,75.28
2019-01-06T03:22:10.689Z,75.34
2019-01-06T03:24:57.234Z,75.30
2019-01-06T03:28:00.044Z,75.33
2019-01-06T03:30:46.584Z,75.58
2019-01-06T03:33:26.743Z,75.78
2019-01-06T03:36:10.771Z,75.68
2019-01-06T03:38:57.195Z,75.77
2019-01-06T03:41:51.875Z,75.85
2019-01-06T03:44:38.566Z,75.91
2019-01-06T03:47:35.677Z,76.06
2019-01-06T03:50:32.367Z,76.01
2019-01-06T03:53:27.672Z,76.18
2019-01-06T03:56:18.425Z,76.36
2019-01-06T03:59:03.131Z,76.66
2019-01-06T04:01:49.800Z,76.67
2019-01-06T04:04:46.755Z,76.59
2019-01-06T04:07:34.367Z,76.49
2019-01-06T04:10:34.431Z,76.43
2019-01-06T04:13:24.846Z,76.51
2019-01-06T04:16:12.373Z,76.62
2019-01-06T04:18:50.980Z,76.61
2019-01-06T04:21:37.995Z,76.71
2019-01-06T04:24:23.477Z,76.66
2019-01-06T04:27:14.537Z,76.65
2019-01-06T04:30:16.406Z,76.65
2019-01-06T04:33:00.667Z,76.57
2019-01-06T04:35:44.192Z,76.51
2019-01-06T04:38:30.471Z,76.74
2019-01-06T04:41:17.018Z,76.77
2019-01-06T04:44:03.808Z,76.87
2019-01-06T04:46:54.789Z,76.96
2019-01-06T04:49:43.453Z,76.72
2019-01-06T04:52:32.705Z,76.67
2019-01-06T04:55:28.167Z,76.75
2019-01-06T04:58:16.306Z,76.74
2019-01-06T05:01:00.586Z,76.78
2019-01-06T05:03:52.441Z,76.74
2019-01-06T05:06:45.546Z,76.62
2019-01-06T05:09:51.990Z,76.69
2019-01-06T05:12:52.873Z,76.45
2019-01-06T05:15:44.629Z,76.59
2019-01-06T05:18:33.575Z,76.57
2019-01-06T05:21:21.560Z,76.48
2019-01-06T05:24:08.386Z,76.59
2019-01-06T05:26:59.029Z,76.66
2019-01-06T05:29:49.720Z,76.66
2019-01-06T05:32:30.533Z,76.63
2019-01-06T05:35:18.437Z,76.63
2019-01-06T05:38:12.479Z,76.61
2019-01-06T05:41:05.247Z,76.31
2019-01-06T05:43:44.945Z,76.23
2019-01-06T05:46:33.789Z,76.21
2019-01-06T05:49:20.366Z,76.26
2019-01-06T05:52:13.217Z,76.30
2019-01-06T05:55:11.778Z,76.34
2019-01-06T05:58:02.795Z,76.43
2019-01-06T06:00:49.409Z,76.53
2019-01-06T06:03:35.307Z,76.70
2019-01-06T06:06:14.414Z,76.75
2019-01-06T06:09:09.285Z,76.78
2019-01-06T06:12:09.426Z,76.79
2019-01-06T06:14:55.744Z,76.75
2019-01-06T06:17:42.325Z,76.86
2019-01-06T06:20:41.775Z,76.79
2019-01-06T06:23:36.220Z,76.69
2019-01-06T06:26:26.901Z,76.81
2019-01-06T06:29:19.617Z,76.77
2019-01-06T06:32:10.303Z,76.79
2019-01-06T06:34:58.101Z,76.87
2019-01-06T06:37:39.693Z,76.91
2019-01-06T06:40:27.940Z,76.81
2019-01-06T06:43:15.723Z,76.78
2019-01-06T06:46:06.447Z,76.60
2019-01-06T06:48:47.363Z,76.68
2019-01-06T06:51:30.543Z,76.71
2019-01-06T06:54:30.414Z,76.78
2019-01-06T06:57:52.543Z,76.82
2019-01-06T07:00:53.009Z,76.81
2019-01-06T07:03:44.243Z,76.92
2019-01-06T07:06:42.675Z,77.08
2019-01-06T07:09:31.576Z,77.11
2019-01-06T07:12:22.533Z,76.98
2019-01-06T07:15:22.808Z,77.25
2019-01-06T07:18:10.839Z,77.45
2019-01-06T07:21:02.514Z,77.54
2019-01-06T07:23:51.039Z,77.66
2019-01-06T07:26:53.865Z,77.76
2019-01-06T07:29:53.948Z,77.81
2019-01-06T07:32:52.321Z,77.80
2019-01-06T07:35:34.156Z,77.93
2019-01-06T07:38:20.359Z,77.94
2019-01-06T07:41:09.487Z,77.89
2019-01-06T07:44:00.219Z,78.05
2019-01-06T07:46:50.922Z,78.25
2019-01-06T07:49:32.862Z,78.31
2019-01-06T07:52:37.369Z,78.33
2019-01-06T07:55:19.890Z,79.09
2019-01-06T07:58:17.748Z,79.88
2019-01-06T08:01:04.307Z,79.77
2019-01-06T08:04:09.244Z,79.82
2019-01-06T08:07:00.004Z,79.77
2019-01-06T08:09:46.073Z,79.91
2019-01-06T08:12:36.458Z,80.03
2019-01-06T08:15:25.163Z,80.00
2019-01-06T08:18:29.870Z,80.10
2019-01-06T08:21:16.194Z,80.00
2019-01-06T08:24:03.796Z,79.72
2019-01-06T08:26:49.104Z,79.68
2019-01-06T08:29:37.220Z,79.43
2019-01-06T08:32:24.642Z,79.47
2019-01-06T08:35:11.103Z,79.69
2019-01-06T08:38:11.370Z,79.46
2019-01-06T08:41:02.468Z,79.43
2019-01-06T08:43:46.541Z,79.49
2019-01-06T08:46:33.027Z,79.30
2019-01-06T08:49:21.215Z,79.06
2019-01-06T08:52:02.145Z,78.71
2019-01-06T08:54:51.139Z,78.84
2019-01-06T08:57:43.018Z,79.11
2019-01-06T09:00:34.742Z,79.11
2019-01-06T09:03:18.322Z,79.20
2019-01-06T09:05:59.504Z,79.22
2019-01-06T09:08:47.519Z,79.14
2019-01-06T09:11:36.907Z,79.23
2019-01-06T09:14:28.963Z,79.22
2019-01-06T09:17:15.394Z,79.19
2019-01-06T09:20:02.161Z,78.81
2019-01-06T09:22:48.974Z,78.93
2019-01-06T09:25:40.863Z,79.02
2019-01-06T09:28:40.509Z,78.93
2019-01-06T09:31:43.988Z,78.87
2019-01-06T09:34:31.927Z,79.06
2019-01-06T09:37:31.988Z,79.28
2019-01-06T09:40:27.356Z,79.98
2019-01-06T09:43:14.071Z,79.87
2019-01-06T09:46:04.120Z,80.05
2019-01-06T09:48:52.008Z,80.05
2019-01-06T09:51:52.040Z,80.02
2019-01-06T09:54:38.953Z,80.01
2019-01-06T09:57:32.957Z,80.04
2019-01-06T10:00:25.519Z,79.99
2019-01-06T10:03:09.926Z,80.02
2019-01-06T10:06:10.281Z,79.59
2019-01-06T10:08:56.942Z,79.65
2019-01-06T10:11:38.969Z,79.74
2019-01-06T10:14:25.514Z,79.61
2019-01-06T10:17:28.659Z,79.48
2019-01-06T10:20:15.195Z,79.45
2019-01-06T10:23:12.240Z,79.19
2019-01-06T10:26:02.822Z,78.41
2019-01-06T10:28:53.723Z,78.81
2019-01-06T10:31:42.418Z,78.84
2019-01-06T10:34:33.463Z,78.71
2019-01-06T10:37:19.896Z,78.87
2019-01-06T10:40:16.080Z,78.57
2019-01-06T10:43:19.618Z,78.71
2019-01-06T10:46:26.226Z,78.90
2019-01-06T10:49:30.483Z,78.88
2019-01-06T10:52:26.887Z,78.95
2019-01-06T10:55:28.408Z,78.98
2019-01-06T10:58:21.995Z,78.98
2019-01-06T11:01:08.334Z,79.00
2019-01-06T11:03:55.221Z,78.82
2019-01-06T11:06:48.969Z,78.90
2019-01-06T11:09:34.301Z,78.84
2019-01-06T11:12:21.017Z,78.81
2019-01-06T11:15:11.563Z,79.10
2019-01-06T11:17:57.951Z,79.12
2019-01-06T11:20:44.516Z,79.18
2019-01-06T11:23:30.941Z,79.21
2019-01-06T11:26:22.804Z,79.25
2019-01-06T11:29:09.549Z,79.19
2019-01-06T11:32:03.571Z,79.20
2019-01-06T11:34:50.155Z,79.14
2019-01-06T11:37:36.693Z,79.31
2019-01-06T11:40:23.262Z,79.43
2019-01-06T11:46:13.516Z,79.58
2019-01-06T11:49:04.285Z,79.87
2019-01-06T11:51:55.341Z,79.88
2019-01-06T11:54:52.529Z,79.86
2019-01-06T11:57:52.295Z,79.80
2019-01-06T12:00:38.663Z,79.78
2019-01-06T12:03:29.786Z,80.11
2019-01-06T12:06:17.326Z,80.18
2019-01-06T12:09:08.425Z,80.29
2019-01-06T12:11:57.497Z,80.32
2019-01-06T12:14:45.438Z,80.50
2019-01-06T12:17:37.608Z,80.45
2019-01-06T12:20:37.818Z,80.41
2019-01-06T12:23:33.576Z,80.62
2019-01-06T12:26:20.250Z,80.59
2019-01-06T12:29:11.298Z,80.53
2019-01-06T12:31:55.559Z,80.53
2019-01-06T12:34:42.170Z,80.70
2019-01-06T12:37:28.495Z,80.83
2019-01-06T12:40:16.329Z,80.81
2019-01-06T12:43:09.486Z,80.90
2019-01-06T12:45:57.475Z,80.90
2019-01-06T12:48:43.885Z,80.98
2019-01-06T12:51:27.784Z,81.06
2019-01-06T12:54:22.939Z,81.10
2019-01-06T12:57:07.714Z,81.09
2019-01-06T12:59:55.675Z,81.09
2019-01-06T13:02:41.526Z,81.13
2019-01-06T13:05:28.325Z,81.31
2019-01-06T13:08:14.699Z,81.39
2019-01-06T13:11:01.141Z,81.34
2019-01-06T13:14:02.393Z,81.22
2019-01-06T13:16:43.915Z,81.30
2019-01-06T13:19:32.181Z,81.32
2019-01-06T13:22:18.497Z,81.32
2019-01-06T13:25:15.641Z,81.32
2019-01-06T13:28:15.057Z,81.33
2019-01-06T13:31:01.674Z,80.96
2019-01-06T13:33:58.696Z,80.76
2019-01-06T13:36:52.474Z,80.55
2019-01-06T13:39:52.642Z,80.41
2019-01-06T13:42:47.456Z,80.54
2019-01-06T13:45:47.693Z,80.49
2019-01-06T13:48:32.051Z,80.51
2019-01-06T13:51:26.164Z,80.43
2019-01-06T13:54:32.637Z,80.29
2019-01-06T13:57:19.378Z,80.19
2019-01-06T14:00:06.118Z,80.22
2019-01-06T14:02:52.724Z,80.18
2019-01-06T14:05:54.149Z,80.12
2019-01-06T14:08:43.953Z,80.16
2019-01-06T14:11:33.896Z,80.27
2019-01-06T14:14:21.997Z,80.28
2019-01-06T14:17:21.092Z,80.48
2019-01-06T14:20:06.806Z,80.64
2019-01-06T14:23:05.613Z,80.74
2019-01-06T14:25:53.234Z,80.88
2019-01-06T14:28:44.266Z,81.25
2019-01-06T14:31:32.182Z,81.30
2019-01-06T14:34:19.096Z,81.40
2019-01-06T14:37:07.051Z,81.54
2019-01-06T14:39:58.348Z,81.87
2019-01-06T14:42:55.584Z,82.04
2019-01-06T14:45:42.895Z,82.09
2019-01-06T14:48:36.981Z,82.19
2019-01-06T14:51:24.135Z,82.63
2019-01-06T14:54:26.939Z,82.63
2019-01-06T14:57:27.378Z,82.86
2019-01-06T15:00:14.121Z,82.80
2019-01-06T15:03:00.587Z,82.79
2019-01-06T15:05:49.675Z,82.84
2019-01-06T15:08:34.632Z,82.83
2019-01-06T15:11:28.664Z,82.82
2019-01-06T15:14:15.335Z,82.83
2019-01-06T15:17:01.521Z,82.93
2019-01-06T15:19:49.393Z,83.05
2019-01-06T15:22:36.239Z,83.09
2019-01-06T15:25:23.205Z,83.06
2019-01-06T15:28:11.491Z,83.25
2019-01-06T15:30:59.640Z,83.35
2019-01-06T15:34:00.139Z,83.39
2019-01-06T15:36:57.744Z,83.49
2019-01-06T15:39:44.551Z,83.53
2019-01-06T15:42:33.186Z,83.53
2019-01-06T15:45:21.728Z,83.45
2019-01-06T15:48:08.671Z,83.53
2019-01-06T15:51:07.805Z,83.86
2019-01-06T15:53:59.973Z,83.97
2019-01-06T15:56:43.270Z,83.81
2019-01-06T15:59:31.849Z,83.93
2019-01-06T16:02:19.263Z,83.90
2019-01-06T16:05:07.961Z,84.19
2019-01-06T16:07:58.624Z,84.13
2019-01-06T16:13:54.979Z,84.11
2019-01-06T16:16:49.369Z,84.08
2019-01-06T16:19:43.877Z,83.98
2019-01-06T16:22:32.493Z,83.95
2019-01-06T16:25:22.124Z,83.89
2019-01-06T16:28:16.599Z,83.95
2019-01-06T16:31:08.499Z,83.70
2019-01-06T16:34:00.698Z,83.65
2019-01-06T16:36:47.666Z,83.55
2019-01-06T16:39:35.576Z,83.63
2019-01-06T16:42:23.651Z,83.87
2019-01-06T16:45:10.738Z,83.79
2019-01-06T16:48:09.949Z,83.76
2019-01-06T16:50:50.361Z,83.80
2019-01-06T16:53:41.134Z,83.75
2019-01-06T16:56:27.611Z,83.68
2019-01-06T16:59:16.735Z,83.56
2019-01-06T17:02:25.256Z,83.42
2019-01-06T17:05:06.884Z,83.41
2019-01-06T17:07:53.453Z,83.04
2019-01-06T17:10:52.422Z,82.59
2019-01-06T17:13:54.877Z,82.53
2019-01-06T17:16:46.463Z,82.52
2019-01-06T17:19:52.775Z,82.25
2019-01-06T17:22:49.738Z,82.09
2019-01-06T17:25:36.215Z,81.73
2019-01-06T17:28:22.605Z,81.86
2019-01-06T17:31:16.720Z,81.68
2019-01-06T17:34:04.794Z,81.80
2019-01-06T17:37:00.089Z,81.86
2019-01-06T17:39:38.537Z,81.83
2019-01-06T17:42:22.489Z,81.83
2019-01-06T17:45:09.002Z,81.84
2019-01-06T17:48:15.347Z,81.91
2019-01-06T17:51:03.679Z,82.06
2019-01-06T17:53:55.258Z,82.13
2019-01-06T17:56:46.880Z,82.20
2019-01-06T17:59:44.318Z,82.23
2019-01-06T18:02:43.218Z,82.32
2019-01-06T18:05:34.857Z,82.37
2019-01-06T18:08:35.330Z,82.36
2019-01-06T18:11:19.032Z,82.19
2019-01-06T18:14:08.106Z,82.44
2019-01-06T18:16:54.995Z,82.58
2019-01-06T18:19:53.154Z,82.81
2019-01-06T18:22:56.316Z,82.75
2019-01-06T18:25:44.145Z,83.03
2019-01-06T18:28:38.224Z,83.08
2019-01-06T18:31:40.295Z,83.00
2019-01-06T18:34:20.010Z,83.01
2019-01-06T18:37:08.033Z,82.94
2019-01-06T18:39:56.028Z,82.72
2019-01-06T18:42:50.352Z,82.66
2019-01-06T18:45:36.995Z,82.25
2019-01-06T18:48:31.352Z,82.30
2019-01-06T18:51:18.214Z,82.29
2019-01-06T18:54:08.318Z,82.11
2019-01-06T18:56:55.186Z,82.22
2019-01-06T18:59:41.806Z,82.34
2019-01-06T19:02:42.079Z,82.14
2019-01-06T19:05:30.215Z,82.14
2019-01-06T19:08:25.659Z,82.01
2019-01-06T19:11:11.069Z,81.79
2019-01-06T19:14:02.111Z,81.73
2019-01-06T19:16:43.003Z,81.95
2019-01-06T19:19:46.341Z,82.06
2019-01-06T19:22:43.480Z,82.14
2019-01-06T19:25:29.899Z,82.26
2019-01-06T19:28:32.936Z,82.25
2019-01-06T19:31:21.881Z,82.24
2019-01-06T19:37:04.648Z,81.80
2019-01-06T19:39:51.427Z,81.89
2019-01-06T19:42:47.815Z,81.93
2019-01-06T19:45:39.352Z,81.94
2019-01-06T19:48:36.122Z,81.78
2019-01-06T19:51:30.669Z,81.50
2019-01-06T19:54:28.456Z,81.60
2019-01-06T19:57:15.396Z,81.80
2019-01-06T20:00:03.565Z,81.75
2019-01-06T20:02:52.553Z,81.71
2019-01-06T20:05:49.814Z,81.69
2019-01-06T20:08:48.492Z,81.86
2019-01-06T20:11:37.412Z,81.89
2019-01-06T20:14:23.146Z,82.01
2019-01-06T20:17:14.603Z,81.97
2019-01-06T20:19:59.192Z,82.12
2019-01-06T20:22:53.463Z,82.25
2019-01-06T20:25:40.342Z,82.34
2019-01-06T20:28:27.073Z,82.41
2019-01-06T20:31:15.447Z,82.38
2019-01-06T20:34:02.420Z,82.45
2019-01-06T20:37:05.294Z,82.44
2019-01-06T20:39:51.604Z,82.26
2019-01-06T20:42:38.136Z,82.17
2019-01-06T20:45:26.319Z,82.07
2019-01-06T20:48:13.472Z,82.06
2019-01-06T20:51:02.619Z,82.12
2019-01-06T20:53:49.017Z,81.96
2019-01-06T20:56:37.138Z,82.02
2019-01-06T20:59:32.782Z,82.04
2019-01-06T21:02:20.485Z,82.01
2019-01-06T21:05:08.061Z,81.94
2019-01-06T21:07:56.513Z,82.00
2019-01-06T21:10:52.482Z,82.18
2019-01-06T21:13:39.097Z,81.83
2019-01-06T21:16:37.325Z,81.88
2019-01-06T21:19:34.173Z,82.04
2019-01-06T21:22:22.333Z,82.07
2019-01-06T21:25:14.414Z,81.99
2019-01-06T21:27:54.804Z,81.71
2019-01-06T21:30:44.205Z,81.73
2019-01-06T21:33:35.445Z,81.72
2019-01-06T21:36:32.195Z,81.44
2019-01-06T21:39:15.887Z,81.38
2019-01-06T21:42:16.105Z,81.57
2019-01-06T21:45:02.785Z,81.66
2019-01-06T21:47:51.657Z,81.65
2019-01-06T21:50:39.614Z,81.42
2019-01-06T21:53:33.035Z,81.41
2019-01-06T21:56:14.368Z,81.46
2019-01-06T21:59:00.950Z,81.36
2019-01-06T22:01:49.977Z,81.48
2019-01-06T22:04:55.926Z,81.49
2019-01-06T22:07:51.390Z,81.30
2019-01-06T22:10:36.496Z,81.28
2019-01-06T22:13:23.297Z,81.30
2019-01-06T22:16:17.185Z,81.21
2019-01-06T22:19:03.149Z,81.18
2019-01-06T22:21:51.122Z,81.15
2019-01-06T22:24:37.663Z,81.29
2019-01-06T22:27:26.068Z,81.19
2019-01-06T22:30:18.226Z,81.09
2019-01-06T22:33:08.827Z,80.87
2019-01-06T22:35:51.689Z,80.85
2019-01-06T22:38:34.658Z,80.92
2019-01-06T22:41:19.216Z,80.98
2019-01-06T22:44:05.286Z,80.92
2019-01-06T22:46:53.418Z,80.50
2019-01-06T22:49:42.656Z,80.57
2019-01-06T22:52:36.943Z,80.40
2019-01-06T22:55:39.275Z,80.64
2019-01-06T22:58:28.470Z,80.46
2019-01-06T23:01:32.998Z,80.66
2019-01-06T23:04:20.983Z,80.65
2019-01-06T23:07:07.386Z,80.52
2019-01-06T23:09:55.327Z,80.32
2019-01-06T23:12:43.101Z,80.33
2019-01-06T23:15:46.853Z,80.48
2019-01-06T23:18:49.311Z,80.66
2019-01-06T23:21:46.195Z,80.76
2019-01-06T23:24:43.919Z,80.79
2019-01-06T23:27:39.602Z,80.60
2019-01-06T23:30:33.137Z,80.65
2019-01-06T23:33:21.663Z,80.64
2019-01-06T23:36:12.893Z,80.23
2019-01-06T23:38:59.346Z,80.19
2019-01-06T23:41:47.287Z,79.76
2019-01-06T23:44:40.356Z,79.95
2019-01-06T23:47:30.277Z,80.07
2019-01-06T23:50:16.113Z,80.25
2019-01-06T23:53:02.990Z,80.23
2019-01-06T23:55:50.379Z,80.22
2019-01-06T23:58:37.409Z,79.95
